createdAt,value
2018-03-03T00:01:09.698Z,99919.91
2018-03-03T00:03:45.130Z,99920.81
2018-03-03T00:06:20.316Z,99919.39
2018-03-03T00:08:56.213Z,99919.41
2018-03-03T00:11:31.350Z,99917.09
2018-03-03T00:14:11.594Z,99918.42
2018-03-03T00:16:47.666Z,99913.34
2018-03-03T00:19:22.932Z,99903.03
2018-03-03T00:21:57.908Z,99896.05
2018-03-03T00:24:32.791Z,99897.95
2018-03-03T00:27:08.698Z,99899.63
2018-03-03T00:29:43.376Z,99901.28
2018-03-03T00:32:18.346Z,99899.36
2018-03-03T00:34:53.647Z,99900.14
2018-03-03T00:37:28.797Z,99892.56
2018-03-03T00:40:04.179Z,99906.12
2018-03-03T00:42:39.251Z,99900.18
2018-03-03T00:45:14.358Z,99901.80
2018-03-03T00:47:49.250Z,99894.87
2018-03-03T00:50:24.397Z,99899.58
2018-03-03T00:52:59.401Z,99890.96
2018-03-03T00:55:34.491Z,99896.12
2018-03-03T00:58:09.368Z,99895.81
2018-03-03T01:00:44.139Z,99896.87
2018-03-03T01:03:18.718Z,99898.09
2018-03-03T01:05:53.815Z,99894.17
2018-03-03T01:08:28.834Z,99898.49
2018-03-03T01:11:04.683Z,99890.42
2018-03-03T01:13:39.579Z,99900.37
2018-03-03T01:16:14.692Z,99887.23
2018-03-03T01:18:49.922Z,99895.56
2018-03-03T01:21:25.243Z,99892.23
2018-03-03T01:24:00.566Z,99901.99
2018-03-03T01:26:35.570Z,99888.94
2018-03-03T01:29:10.678Z,99894.03
2018-03-03T01:31:45.810Z,99897.20
2018-03-03T01:34:20.878Z,99884.52
2018-03-03T01:36:56.133Z,99885.88
2018-03-03T01:39:31.703Z,99879.28
2018-03-03T01:42:06.631Z,99881.53
2018-03-03T01:44:41.707Z,99882.16
2018-03-03T01:47:16.675Z,99881.78
2018-03-03T01:49:51.691Z,99887.10
2018-03-03T01:52:26.249Z,99895.48
2018-03-03T01:55:01.822Z,99880.70
2018-03-03T01:57:37.454Z,99885.11
2018-03-03T02:00:12.087Z,99870.63
2018-03-03T02:02:47.599Z,99873.66
2018-03-03T02:05:23.070Z,99878.75
2018-03-03T02:07:58.291Z,99865.11
2018-03-03T02:10:33.834Z,99865.45
2018-03-03T02:13:08.904Z,99862.81
2018-03-03T02:15:44.075Z,99869.77
2018-03-03T02:18:19.260Z,99868.97
2018-03-03T02:20:54.918Z,99859.11
2018-03-03T02:23:29.907Z,99857.68
2018-03-03T02:26:04.768Z,99862.19
2018-03-03T02:28:39.910Z,99866.28
2018-03-03T02:31:14.917Z,99860.75
2018-03-03T02:33:50.244Z,99860.84
2018-03-03T02:36:25.628Z,99852.16
2018-03-03T02:39:00.910Z,99862.05
2018-03-03T02:41:35.851Z,99857.61
2018-03-03T02:44:10.963Z,99853.82
2018-03-03T02:46:46.135Z,99849.36
2018-03-03T02:49:21.099Z,99852.49
2018-03-03T02:51:56.339Z,99847.05
2018-03-03T02:54:31.334Z,99842.90
2018-03-03T02:57:05.950Z,99845.91
2018-03-03T02:59:40.835Z,99842.03
2018-03-03T03:02:16.072Z,99839.89
2018-03-03T03:04:51.259Z,99836.16
2018-03-03T03:07:26.110Z,99838.79
2018-03-03T03:10:01.190Z,99834.96
2018-03-03T03:12:36.230Z,99834.44
2018-03-03T03:15:11.259Z,99838.16
2018-03-03T03:17:46.377Z,99836.95
2018-03-03T03:20:20.878Z,99831.80
2018-03-03T03:22:56.537Z,99823.63
2018-03-03T03:25:31.064Z,99822.84
2018-03-03T03:28:06.123Z,99823.78
2018-03-03T03:30:40.907Z,99819.84
2018-03-03T03:33:16.750Z,99830.70
2018-03-03T03:35:52.127Z,99828.03
2018-03-03T03:38:26.930Z,99833.30
2018-03-03T03:41:02.427Z,99834.81
2018-03-03T03:43:37.244Z,99825.23
2018-03-03T03:46:12.270Z,99823.34
2018-03-03T03:48:48.329Z,99823.14
2018-03-03T03:51:23.049Z,99821.80
2018-03-03T03:53:57.966Z,99817.15
2018-03-03T03:56:33.210Z,99825.16
2018-03-03T03:59:08.133Z,99821.77
2018-03-03T04:01:43.365Z,99819.55
2018-03-03T04:04:18.422Z,99817.02
2018-03-03T04:06:53.465Z,99816.49
2018-03-03T04:09:28.910Z,99822.47
2018-03-03T04:12:03.982Z,99820.83
2018-03-03T04:14:39.046Z,99817.37
2018-03-03T04:17:13.998Z,99805.79
2018-03-03T04:19:49.045Z,99808.94
2018-03-03T04:22:23.683Z,99811.70
2018-03-03T04:24:58.869Z,99810.09
2018-03-03T04:27:33.701Z,99814.30
2018-03-03T04:30:09.029Z,99811.34
2018-03-03T04:32:43.898Z,99808.47
2018-03-03T04:35:18.907Z,99810.23
2018-03-03T04:37:53.457Z,99809.38
2018-03-03T04:40:28.586Z,99806.34
2018-03-03T04:43:03.225Z,99814.30
2018-03-03T04:45:37.566Z,99811.73
2018-03-03T04:48:12.827Z,99812.88
2018-03-03T04:50:48.278Z,99802.83
2018-03-03T04:53:23.224Z,99804.59
2018-03-03T04:55:57.934Z,99799.59
2018-03-03T04:58:33.024Z,99797.45
2018-03-03T05:01:08.430Z,99797.77
2018-03-03T05:04:02.856Z,99795.09
2018-03-03T05:09:36.349Z,99788.58
2018-03-03T05:12:11.358Z,99791.59
2018-03-03T05:18:08.897Z,99792.86
2018-03-03T05:20:49.705Z,99790.34
2018-03-03T05:23:29.065Z,99781.76
2018-03-03T05:26:09.099Z,99783.12
2018-03-03T05:31:52.127Z,99781.86
2018-03-03T05:37:37.816Z,99773.29
2018-03-03T05:43:14.890Z,99775.23
2018-03-03T05:45:54.962Z,99776.79
2018-03-03T05:48:30.314Z,99780.80
2018-03-03T05:54:11.130Z,99777.59
2018-03-03T05:56:52.553Z,99766.83
2018-03-03T05:59:28.743Z,99775.86
2018-03-03T06:02:13.136Z,99765.34
2018-03-03T06:08:06.670Z,99775.78
2018-03-03T06:10:41.574Z,99765.06
2018-03-03T06:13:16.554Z,99769.36
2018-03-03T06:15:51.482Z,99762.29
2018-03-03T06:18:26.473Z,99765.27
2018-03-03T06:21:01.630Z,99769.27
2018-03-03T06:23:36.682Z,99763.34
2018-03-03T06:26:11.446Z,99768.35
2018-03-03T06:28:46.703Z,99771.55
2018-03-03T06:31:21.405Z,99774.58
2018-03-03T06:33:56.727Z,99762.86
2018-03-03T06:36:31.586Z,99767.61
2018-03-03T06:39:06.482Z,99781.84
2018-03-03T06:41:41.643Z,99781.30
2018-03-03T06:44:16.490Z,99779.42
2018-03-03T06:46:51.669Z,99777.72
2018-03-03T06:49:26.492Z,99783.30
2018-03-03T06:52:01.427Z,99786.66
2018-03-03T06:54:36.569Z,99785.76
2018-03-03T06:57:11.473Z,99791.06
2018-03-03T06:59:46.474Z,99781.73
2018-03-03T07:02:21.534Z,99777.13
2018-03-03T07:04:56.381Z,99775.30
2018-03-03T07:07:31.550Z,99768.30
2018-03-03T07:10:06.662Z,99777.09
2018-03-03T07:12:41.290Z,99785.09
2018-03-03T07:15:18.759Z,99792.64
2018-03-03T07:17:53.713Z,99789.02
2018-03-03T07:20:28.619Z,99788.23
2018-03-03T07:23:03.441Z,99781.59
2018-03-03T07:25:38.082Z,99796.63
2018-03-03T07:28:13.010Z,99796.80
2018-03-03T07:30:48.895Z,99795.47
2018-03-03T07:33:24.442Z,99802.39
2018-03-03T07:35:59.440Z,99787.24
2018-03-03T07:38:34.554Z,99795.17
2018-03-03T07:41:09.413Z,99806.52
2018-03-03T07:43:44.706Z,99809.10
2018-03-03T07:46:19.683Z,99801.53
2018-03-03T07:48:54.835Z,99807.38
2018-03-03T07:51:29.066Z,99817.25
2018-03-03T07:54:04.654Z,99812.14
2018-03-03T07:56:49.765Z,99807.58
2018-03-03T07:59:24.589Z,99812.67
2018-03-03T08:01:59.126Z,99814.30
2018-03-03T08:04:33.451Z,99820.22
2018-03-03T08:07:08.092Z,99813.86
2018-03-03T08:09:43.325Z,99820.61
2018-03-03T08:12:18.558Z,99811.19
2018-03-03T08:14:53.742Z,99811.04
2018-03-03T08:17:28.802Z,99819.36
2018-03-03T08:20:03.893Z,99805.81
2018-03-03T08:22:39.071Z,99809.55
2018-03-03T08:25:14.118Z,99811.98
2018-03-03T08:27:49.479Z,99805.49
2018-03-03T08:30:24.562Z,99820.74
2018-03-03T08:32:59.034Z,99814.78
2018-03-03T08:35:33.774Z,99817.37
2018-03-03T08:38:08.755Z,99812.25
2018-03-03T08:40:43.594Z,99809.28
2018-03-03T08:43:18.670Z,99809.28
2018-03-03T08:45:53.642Z,99805.06
2018-03-03T08:48:28.698Z,99813.38
2018-03-03T08:51:03.454Z,99799.41
2018-03-03T08:53:38.618Z,99806.55
2018-03-03T08:56:13.594Z,99802.85
2018-03-03T08:58:48.929Z,99807.41
2018-03-03T09:01:24.453Z,99812.36
2018-03-03T09:03:59.897Z,99804.12
2018-03-03T09:06:34.717Z,99803.80
2018-03-03T09:09:09.862Z,99797.78
2018-03-03T09:11:44.679Z,99794.47
2018-03-03T09:14:19.493Z,99803.80
2018-03-03T09:16:54.837Z,99808.05
2018-03-03T09:19:29.318Z,99790.56
2018-03-03T09:22:04.433Z,99789.65
2018-03-03T09:24:39.686Z,99796.48
2018-03-03T09:27:14.743Z,99803.52
2018-03-03T09:29:49.747Z,99802.25
2018-03-03T09:32:24.728Z,99797.88
2018-03-03T09:34:59.802Z,99787.14
2018-03-03T09:37:34.874Z,99785.14
2018-03-03T09:40:10.022Z,99785.80
2018-03-03T09:42:44.882Z,99788.02
2018-03-03T09:45:20.150Z,99786.71
2018-03-03T09:47:54.772Z,99781.00
2018-03-03T09:50:29.754Z,99785.93
2018-03-03T09:53:04.762Z,99778.72
2018-03-03T09:55:39.582Z,99779.78
2018-03-03T09:58:14.904Z,99774.31
2018-03-03T10:00:49.773Z,99780.17
2018-03-03T10:03:24.929Z,99775.61
2018-03-03T10:06:00.280Z,99783.12
2018-03-03T10:08:34.927Z,99781.45
2018-03-03T10:11:10.098Z,99778.09
2018-03-03T10:13:45.146Z,99787.91
2018-03-03T10:16:20.330Z,99781.72
2018-03-03T10:18:55.165Z,99779.44
2018-03-03T10:21:30.315Z,99769.97
2018-03-03T10:24:05.340Z,99778.03
2018-03-03T10:26:40.167Z,99774.42
2018-03-03T10:29:14.966Z,99791.38
2018-03-03T10:31:50.221Z,99786.77
2018-03-03T10:34:25.102Z,99779.73
2018-03-03T10:37:00.146Z,99779.58
2018-03-03T10:39:35.122Z,99784.94
2018-03-03T10:42:09.972Z,99786.14
2018-03-03T10:44:44.857Z,99785.30
2018-03-03T10:47:19.609Z,99783.39
2018-03-03T10:49:55.245Z,99780.25
2018-03-03T10:52:30.114Z,99788.86
2018-03-03T10:55:05.374Z,99788.73
2018-03-03T10:57:40.402Z,99782.05
2018-03-03T11:00:21.035Z,99785.55
2018-03-03T11:02:55.805Z,99786.78
2018-03-03T11:05:31.108Z,99773.69
2018-03-03T11:08:06.562Z,99781.01
2018-03-03T11:10:41.515Z,99772.37
2018-03-03T11:13:16.518Z,99776.85
2018-03-03T11:15:51.290Z,99772.09
2018-03-03T11:18:27.091Z,99769.97
2018-03-03T11:21:02.015Z,99768.23
2018-03-03T11:23:37.330Z,99755.66
2018-03-03T11:26:12.198Z,99764.02
2018-03-03T11:28:46.642Z,99764.16
2018-03-03T11:31:21.634Z,99753.66
2018-03-03T11:33:57.061Z,99741.42
2018-03-03T11:36:31.435Z,99751.92
2018-03-03T11:39:06.624Z,99732.09
2018-03-03T11:41:41.939Z,99728.58
2018-03-03T11:44:17.026Z,99730.01
2018-03-03T11:46:52.310Z,99724.75
2018-03-03T11:49:27.102Z,99729.30
2018-03-03T11:52:02.281Z,99722.55
2018-03-03T11:54:37.237Z,99733.59
2018-03-03T11:57:12.310Z,99741.85
2018-03-03T11:59:47.534Z,99743.74
2018-03-03T12:02:22.278Z,99743.27
2018-03-03T12:04:57.399Z,99729.70
2018-03-03T12:07:32.446Z,99735.08
2018-03-03T12:10:07.461Z,99732.78
2018-03-03T12:12:42.336Z,99722.91
2018-03-03T12:15:17.501Z,99730.28
2018-03-03T12:17:52.926Z,99731.75
2018-03-03T12:20:28.222Z,99723.58
2018-03-03T12:23:03.410Z,99725.70
2018-03-03T12:25:38.714Z,99724.53
2018-03-03T12:28:12.996Z,99730.33
2018-03-03T12:30:49.513Z,99728.14
2018-03-03T12:33:24.658Z,99729.13
2018-03-03T12:36:00.220Z,99722.52
2018-03-03T12:38:35.464Z,99728.91
2018-03-03T12:41:10.216Z,99721.58
2018-03-03T12:43:45.447Z,99727.55
2018-03-03T12:46:20.803Z,99722.11
2018-03-03T12:48:55.683Z,99724.80
2018-03-03T12:51:31.267Z,99721.73
2018-03-03T12:54:06.196Z,99711.66
2018-03-03T12:56:41.284Z,99712.95
2018-03-03T12:59:16.543Z,99709.80
2018-03-03T13:01:51.851Z,99710.08
2018-03-03T13:04:27.339Z,99703.03
2018-03-03T13:07:02.487Z,99704.89
2018-03-03T13:09:37.535Z,99701.02
2018-03-03T13:12:13.059Z,99695.77
2018-03-03T13:14:47.510Z,99697.78
2018-03-03T13:17:22.331Z,99694.17
2018-03-03T13:19:57.719Z,99697.42
2018-03-03T13:22:32.608Z,99692.20
2018-03-03T13:25:07.680Z,99693.91
2018-03-03T13:27:42.435Z,99693.80
2018-03-03T13:30:17.403Z,99698.81
2018-03-03T13:32:52.643Z,99700.03
2018-03-03T13:35:28.592Z,99701.25
2018-03-03T13:38:04.117Z,99705.23
2018-03-03T13:40:38.883Z,99697.69
2018-03-03T13:43:13.755Z,99703.72
2018-03-03T13:45:49.836Z,99702.14
2018-03-03T13:48:24.692Z,99699.01
2018-03-03T13:50:59.536Z,99707.73
2018-03-03T13:53:34.563Z,99696.47
2018-03-03T13:56:09.379Z,99691.61
2018-03-03T13:58:43.919Z,99693.86
2018-03-03T14:01:18.892Z,99694.39
2018-03-03T14:03:54.369Z,99691.61
2018-03-03T14:06:29.508Z,99694.68
2018-03-03T14:09:03.996Z,99668.47
2018-03-03T14:11:39.417Z,99671.50
2018-03-03T14:14:14.399Z,99682.97
2018-03-03T14:16:49.828Z,99680.96
2018-03-03T14:19:24.552Z,99694.58
2018-03-03T14:21:59.421Z,99694.34
2018-03-03T14:24:34.480Z,99693.75
2018-03-03T14:27:09.734Z,99689.78
2018-03-03T14:29:44.655Z,99695.44
2018-03-03T14:32:19.764Z,99699.01
2018-03-03T14:34:54.987Z,99691.75
2018-03-03T14:37:29.988Z,99692.55
2018-03-03T14:40:04.532Z,99701.00
2018-03-03T14:42:39.538Z,99691.09
2018-03-03T14:45:14.675Z,99707.14
2018-03-03T14:47:50.108Z,99695.61
2018-03-03T14:50:24.964Z,99702.38
2018-03-03T14:53:00.748Z,99698.94
2018-03-03T14:55:35.204Z,99698.75
2018-03-03T14:58:10.295Z,99702.58
2018-03-03T15:00:45.008Z,99697.86
2018-03-03T15:03:20.275Z,99702.28
2018-03-03T15:05:55.831Z,99708.06
2018-03-03T15:08:30.891Z,99702.85
2018-03-03T15:11:06.547Z,99711.27
2018-03-03T15:13:41.972Z,99706.77
2018-03-03T15:16:16.731Z,99666.88
2018-03-03T15:18:51.898Z,99707.34
2018-03-03T15:21:27.116Z,99710.19
2018-03-03T15:24:02.387Z,99717.27
2018-03-03T15:26:37.586Z,99714.06
2018-03-03T15:29:12.796Z,99710.94
2018-03-03T15:31:48.128Z,99718.29
2018-03-03T15:34:23.583Z,99713.50
2018-03-03T15:36:59.148Z,99718.02
2018-03-03T15:39:34.704Z,99711.98
2018-03-03T15:42:10.226Z,99708.26
2018-03-03T15:44:45.651Z,99705.89
2018-03-03T15:47:20.393Z,99708.05
2018-03-03T15:49:55.848Z,99714.56
2018-03-03T15:52:30.943Z,99709.72
2018-03-03T15:55:05.976Z,99717.58
2018-03-03T15:57:41.099Z,99714.62
2018-03-03T16:00:16.444Z,99715.03
2018-03-03T16:02:51.869Z,99723.88
2018-03-03T16:05:26.722Z,99706.22
2018-03-03T16:08:01.977Z,99723.14
2018-03-03T16:10:37.068Z,99722.78
2018-03-03T16:13:12.511Z,99725.28
2018-03-03T16:15:47.639Z,99715.89
2018-03-03T16:18:22.455Z,99720.22
2018-03-03T16:20:57.296Z,99724.14
2018-03-03T16:23:32.235Z,99728.98
2018-03-03T16:26:07.341Z,99728.39
2018-03-03T16:28:42.643Z,99726.53
2018-03-03T16:31:17.520Z,99739.84
2018-03-03T16:33:52.752Z,99741.38
2018-03-03T16:36:27.695Z,99739.22
2018-03-03T16:39:02.716Z,99731.59
2018-03-03T16:41:37.349Z,99739.93
2018-03-03T16:44:12.300Z,99744.24
2018-03-03T16:46:47.256Z,99739.58
2018-03-03T16:49:22.512Z,99741.25
2018-03-03T16:51:57.709Z,99744.83
2018-03-03T16:54:32.348Z,99740.98
2018-03-03T16:57:07.820Z,99734.95
2018-03-03T16:59:42.467Z,99725.58
2018-03-03T17:02:17.979Z,99733.06
2018-03-03T17:04:52.848Z,99737.11
2018-03-03T17:07:27.711Z,99732.45
2018-03-03T17:10:03.040Z,99736.41
2018-03-03T17:12:38.075Z,99739.89
2018-03-03T17:15:13.311Z,99741.96
2018-03-03T17:17:48.459Z,99734.43
2018-03-03T17:20:23.411Z,99745.48
2018-03-03T17:22:58.878Z,99754.98
2018-03-03T17:25:33.852Z,99749.14
2018-03-03T17:28:08.847Z,99746.23
2018-03-03T17:30:43.875Z,99753.70
2018-03-03T17:33:18.876Z,99757.05
2018-03-03T17:35:54.198Z,99750.89
2018-03-03T17:38:29.124Z,99759.20
2018-03-03T17:41:04.269Z,99758.81
2018-03-03T17:43:39.286Z,99758.36
2018-03-03T17:46:14.740Z,99752.21
2018-03-03T17:48:50.223Z,99757.59
2018-03-03T17:51:25.903Z,99758.81
2018-03-03T17:54:00.907Z,99758.85
2018-03-03T17:56:35.876Z,99758.63
2018-03-03T17:59:11.825Z,99762.42
2018-03-03T18:01:46.766Z,99775.07
2018-03-03T18:04:21.904Z,99774.23
2018-03-03T18:06:56.856Z,99782.72
2018-03-03T18:09:31.912Z,99764.14
2018-03-03T18:12:07.159Z,99776.11
2018-03-03T18:14:42.216Z,99782.86
2018-03-03T18:17:17.191Z,99776.41
2018-03-03T18:19:52.213Z,99775.41
2018-03-03T18:22:27.377Z,99779.55
2018-03-03T18:25:02.335Z,99776.83
2018-03-03T18:27:37.787Z,99774.80
2018-03-03T18:30:12.719Z,99770.75
2018-03-03T18:32:47.412Z,99769.73
2018-03-03T18:35:22.300Z,99771.11
2018-03-03T18:37:57.855Z,99769.36
2018-03-03T18:40:33.036Z,99764.34
2018-03-03T18:43:08.284Z,99759.05
2018-03-03T18:45:42.982Z,99758.73
2018-03-03T18:48:17.983Z,99769.95
2018-03-03T18:50:52.311Z,99766.60
2018-03-03T18:53:27.583Z,99773.39
2018-03-03T18:56:02.180Z,99768.56
2018-03-03T18:58:37.803Z,99772.77
2018-03-03T19:01:13.103Z,99770.94
2018-03-03T19:03:48.041Z,99757.34
2018-03-03T19:06:23.076Z,99765.30
2018-03-03T19:08:57.712Z,99760.54
2018-03-03T19:11:33.024Z,99766.30
2018-03-03T19:14:08.300Z,99770.63
2018-03-03T19:16:43.148Z,99765.19
2018-03-03T19:19:18.124Z,99771.26
2018-03-03T19:21:53.376Z,99768.58
2018-03-03T19:24:28.452Z,99769.05
2018-03-03T19:27:03.775Z,99767.62
2018-03-03T19:29:38.733Z,99771.22
2018-03-03T19:32:13.780Z,99760.87
2018-03-03T19:34:48.994Z,99761.42
2018-03-03T19:37:24.314Z,99758.23
2018-03-03T19:39:59.117Z,99758.43
2018-03-03T19:42:34.087Z,99759.11
2018-03-03T19:45:08.545Z,99753.52
2018-03-03T19:47:43.244Z,99755.52
2018-03-03T19:50:18.216Z,99752.27
2018-03-03T19:52:53.332Z,99759.50
2018-03-03T19:55:28.204Z,99766.17
2018-03-03T19:58:03.481Z,99761.19
2018-03-03T20:00:38.440Z,99769.81
2018-03-03T20:03:13.492Z,99769.09
2018-03-03T20:05:48.536Z,99763.70
2018-03-03T20:08:23.520Z,99765.58
2018-03-03T20:10:58.472Z,99766.09
2018-03-03T20:13:32.879Z,99762.33
2018-03-03T20:16:08.081Z,99764.45
2018-03-03T20:18:43.148Z,99764.80
2018-03-03T20:21:18.103Z,99763.36
2018-03-03T20:23:53.404Z,99757.87
2018-03-03T20:26:30.680Z,99762.84
2018-03-03T20:29:05.611Z,99762.08
2018-03-03T20:31:41.167Z,99765.61
2018-03-03T20:34:16.156Z,99766.40
2018-03-03T20:36:50.580Z,99755.88
2018-03-03T20:39:26.075Z,99756.97
2018-03-03T20:42:00.832Z,99749.33
2018-03-03T20:44:35.608Z,99754.97
2018-03-03T20:47:10.595Z,99752.17
2018-03-03T20:49:45.539Z,99753.05
2018-03-03T20:52:20.599Z,99759.17
2018-03-03T20:54:55.543Z,99759.41
2018-03-03T20:57:31.084Z,99756.42
2018-03-03T21:00:05.731Z,99753.17
2018-03-03T21:02:40.917Z,99749.42
2018-03-03T21:05:16.424Z,99747.25
2018-03-03T21:07:51.648Z,99734.77
2018-03-03T21:10:26.292Z,99735.25
2018-03-03T21:13:01.444Z,99732.05
2018-03-03T21:15:36.508Z,99728.72
2018-03-03T21:18:11.583Z,99732.53
2018-03-03T21:20:46.619Z,99728.80
2018-03-03T21:23:21.360Z,99726.05
2018-03-03T21:25:56.300Z,99733.66
2018-03-03T21:28:31.386Z,99731.19
2018-03-03T21:31:06.575Z,99733.82
2018-03-03T21:33:41.709Z,99732.17
2018-03-03T21:36:16.763Z,99725.98
2018-03-03T21:38:52.226Z,99727.91
2018-03-03T21:41:27.721Z,99731.55
2018-03-03T21:44:02.842Z,99730.95
2018-03-03T21:46:38.328Z,99731.34
2018-03-03T21:49:13.259Z,99743.39
2018-03-03T21:51:48.666Z,99740.39
2018-03-03T21:54:23.379Z,99749.83
2018-03-03T21:56:58.696Z,99747.34
2018-03-03T21:59:33.569Z,99750.19
2018-03-03T22:02:08.527Z,99757.50
2018-03-03T22:04:43.375Z,99762.62
2018-03-03T22:07:18.407Z,99767.81
2018-03-03T22:09:53.543Z,99766.58
2018-03-03T22:12:28.380Z,99757.05
2018-03-03T22:15:03.539Z,99754.20
2018-03-03T22:17:38.628Z,99755.97
2018-03-03T22:20:13.594Z,99755.33
2018-03-03T22:22:48.939Z,99759.58
2018-03-03T22:25:24.408Z,99757.66
2018-03-03T22:27:59.764Z,99761.05
2018-03-03T22:30:34.697Z,99751.38
2018-03-03T22:33:10.280Z,99753.48
2018-03-03T22:35:45.144Z,99748.80
2018-03-03T22:38:20.947Z,99749.68
2018-03-03T22:40:55.824Z,99740.92
2018-03-03T22:43:30.998Z,99742.04
2018-03-03T22:46:06.448Z,99739.21
2018-03-03T22:48:41.464Z,99744.73
2018-03-03T22:51:16.534Z,99732.63
2018-03-03T22:53:51.998Z,99731.19
2018-03-03T22:56:26.776Z,99722.38
2018-03-03T22:59:02.041Z,99726.75
2018-03-03T23:01:36.824Z,99720.31
2018-03-03T23:04:11.999Z,99722.62
2018-03-03T23:06:47.056Z,99726.37
2018-03-03T23:09:22.025Z,99732.61
2018-03-03T23:11:56.871Z,99730.66
2018-03-03T23:14:31.932Z,99728.86
2018-03-03T23:17:06.595Z,99732.06
2018-03-03T23:19:41.639Z,99737.45
2018-03-03T23:22:16.871Z,99731.25
2018-03-03T23:24:52.063Z,99728.34
2018-03-03T23:27:26.703Z,99721.70
2018-03-03T23:30:01.872Z,99720.73
2018-03-03T23:32:36.759Z,99726.28
2018-03-03T23:35:11.989Z,99717.30
2018-03-03T23:37:46.720Z,99717.55
2018-03-03T23:40:21.851Z,99709.98
2018-03-03T23:42:56.859Z,99720.66
2018-03-03T23:45:31.899Z,99718.22
2018-03-03T23:48:06.901Z,99719.85
2018-03-03T23:50:41.992Z,99726.29
2018-03-03T23:53:17.036Z,99728.11
2018-03-03T23:55:52.218Z,99729.42
2018-03-03T23:58:26.791Z,99722.24
